Time;durP1;ratioP1;P1;durP2;ratioP2;P2;SDS_P1;SDS_P2;PMS_P1;PMS_P2;Temp;Humidity;BMP_temperature;BMP_pressure;BME280_temperature;BME280_humidity;BME280_pressure;Samples;Min_cycle;Max_cycle;Signal;HPM_P1;HPM_P2
2022/12/17 13:07:17;;;;;;;;;;;;;;;;;;5037783;28;19958;-77
2022/12/17 13:09:43;;;;;;;;;;;;;;;;;;5033151;28;19974;-77
2022/12/17 13:12:09;;;;;;;;;;;;;;;;;;5036480;28;19904;-77
2022/12/17 13:14:35;;;;;;;;;;;;;;;;;;5035714;28;19904;-77
2022/12/17 13:17:01;;;;;;;;;;;;;;;;;;5036206;28;19955;-78
2022/12/17 13:19:27;;;;;;;;;;;;;;;;;;5052834;28;19996;-79
2022/12/17 13:21:53;;;;;;;;;;;;;;;;;;5033146;28;19952;-79
2022/12/17 13:24:20;;;;;;;;;;;;;;;;;;5026136;28;19908;-79
2022/12/17 13:26:46;;;;;;;;;;;;;;;;;;5025768;28;19967;-79
2022/12/17 13:29:12;;;;;;;;;;;;;;;;;;5035565;28;19977;-79
2022/12/17 13:31:38;;;;;;;;;;;;;;;;;;5034515;28;19917;-79
2022/12/17 13:34:04;;;;;;;;;;;;;;;;;;5053267;28;19916;-79
2022/12/17 13:36:29;;;;;;;;;;;;;;;;;;5036572;28;19963;-78
2022/12/17 13:38:55;;;;;;;;;;;;;;;;;;5053546;28;19955;-79
2022/12/17 13:41:21;;;;;;;;;;;;;;;;;;5041369;28;20418;-79
2022/12/17 13:43:47;;;;;;;;;;;;;;;;;;5034634;28;19905;-79
2022/12/17 13:46:13;;;;;;;;;;;;;;;;;;4999185;28;19913;-78
2022/12/17 13:48:39;;;;;;;;;;;;;;;;;;5000508;28;21487;-78
2022/12/17 13:51:05;;;;;;;;;;;;;;;;;;5017368;28;19944;-78
2022/12/17 13:53:34;;;;;;;;;;;;;;;;;;5017505;28;19909;-78
2022/12/17 13:56:00;;;;;;;;;;;;;;;;;;5017215;28;19905;-79
2022/12/17 13:58:26;;;;;;;;;;;;;;;;;;5017029;28;19905;-79
2022/12/17 14:00:52;;;;;;;;;;;;;;;;;;5016900;28;19913;-79
2022/12/17 14:03:18;;;;;;;;;;;;;;;;;;5016910;28;20357;-79
2022/12/17 14:05:44;;;;;;;;;;;;;;;;;;5016780;28;19950;-79
2022/12/17 14:08:10;;;;;;;;;;;;;;;;;;5029790;28;20006;-78
2022/12/17 14:10:36;;;;;;;;;;;;;;;;;;5049467;28;20367;-78
2022/12/17 14:13:02;;;;;;;;;;;;;;;;;;5016802;28;20283;-79
2022/12/17 14:15:30;;;;;;;;;;;;;;;;;;5011795;28;19976;-79
2022/12/17 14:17:57;;;;;;;;;;;;;;;;;;5029303;28;20339;-79
2022/12/17 14:20:23;;;;;;;;;;;;;;;;;;5016375;28;20314;-78
2022/12/17 14:22:49;;;;;;;;;;;;;;;;;;5015994;28;19905;-79
2022/12/17 14:25:15;;;;;;;;;;;;;;;;;;5016421;28;19905;-78
2022/12/17 14:27:41;;;;;;;;;;;;;;;;;;5034588;28;20351;-84
2022/12/17 14:30:07;;;;;;;;;;;;;;;;;;5016667;28;19921;-83
2022/12/17 14:32:33;;;;;;;;;;;;;;;;;;5034680;28;19920;-84
2022/12/17 14:34:59;;;;;;;;;;;;;;;;;;5034305;28;19905;-82
2022/12/17 14:37:25;;;;;;;;;;;;;;;;;;5016026;28;19940;-81
2022/12/17 14:39:51;;;;;;;;;;;;;;;;;;5039869;28;19912;-81
2022/12/17 14:42:31;;;;;;;;;;;;;;;;;;5036173;28;19932;-82
2022/12/17 14:44:57;;;;;;;;;;;;;;;;;;5032071;28;20319;-81
2022/12/17 14:47:23;;;;;;;;;;;;;;;;;;5034161;28;19958;-82
2022/12/17 14:49:50;;;;;;;;;;;;;;;;;;5036246;28;20578;-81
2022/12/17 14:52:16;;;;;;;;;;;;;;;;;;5037422;28;19951;-81
2022/12/17 14:54:42;;;;;;;;;;;;;;;;;;5040871;28;20085;-81
2022/12/17 14:57:08;;;;;;;;;;;;;;;;;;5047821;28;19991;-81
2022/12/17 14:59:34;;;;;;;;;;;;;;;;;;5051520;28;19908;-81
2022/12/17 15:02:00;;;;;;;;;;;;;;;;;;5045965;28;19951;-81
2022/12/17 15:04:26;;;;;;;;;;;;;;;;;;5055828;28;19916;-82
2022/12/17 15:06:52;;;;;;;;;;;;;;;;;;5036608;28;19916;-82
2022/12/17 15:09:18;;;;;;;;;;;;;;;;;;5047656;28;19964;-82
2022/12/17 15:11:44;;;;;;;;;;;;;;;;;;5033018;28;19947;-82
2022/12/17 15:14:10;;;;;;;;;;;;;;;;;;5030414;28;19959;-82
2022/12/17 15:16:36;;;;;;;;;;;;;;;;;;5032805;28;19939;-82
2022/12/17 15:19:02;;;;;;;;;;;;;;;;;;5051466;28;19909;-82
2022/12/17 15:21:28;;;;;;;;;;;;;;;;;;5034833;28;19905;-82
2022/12/17 15:23:54;;;;;;;;;;;;;;;;;;5035027;28;19912;-82
2022/12/17 15:26:20;;;;;;;;;;;;;;;;;;5053042;28;20003;-82
2022/12/17 15:28:46;;;;;;;;;;;;;;;;;;5052622;28;20347;-82
2022/12/17 15:31:12;;;;;;;;;;;;;;;;;;5053239;28;19944;-82
2022/12/17 15:33:39;;;;;;;;;;;;;;;;;;5030400;28;20330;-82
2022/12/17 15:36:05;;;;;;;;;;;;;;;;;;5052824;28;19912;-82
2022/12/17 15:38:31;;;;;;;;;;;;;;;;;;5034461;28;20323;-82
2022/12/17 15:40:57;;;;;;;;;;;;;;;;;;5052592;28;19912;-82
2022/12/17 15:43:23;;;;;;;;;;;;;;;;;;5070685;28;19912;-82
2022/12/17 15:45:49;;;;;;;;;;;;;;;;;;5052452;28;19909;-82
2022/12/17 15:48:15;;;;;;;;;;;;;;;;;;5052183;28;19912;-82
2022/12/17 15:50:40;;;;;;;;;;;;;;;;;;5072128;28;20327;-82
2022/12/17 15:53:08;;;;;;;;;;;;;;;;;;5072501;28;19943;-82
2022/12/17 15:55:34;;;;;;;;;;;;;;;;;;5071143;28;19905;-82
2022/12/17 15:57:59;;;;;;;;;;;;;;;;;;5071305;28;20426;-82
2022/12/17 16:00:25;;;;;;;;;;;;;;;;;;5072779;28;20258;-82
2022/12/17 16:02:51;;;;;;;;;;;;;;;;;;5069604;28;19974;-82
2022/12/17 16:05:17;;;;;;;;;;;;;;;;;;5052635;28;20335;-82
2022/12/17 16:07:43;;;;;;;;;;;;;;;;;;5043763;28;19912;-82
2022/12/17 16:10:09;;;;;;;;;;;;;;;;;;5054368;28;19959;-82
2022/12/17 16:12:35;;;;;;;;;;;;;;;;;;5054183;28;19905;-83
2022/12/17 16:15:01;;;;;;;;;;;;;;;;;;5056618;28;19958;-82
2022/12/17 16:17:27;;;;;;;;;;;;;;;;;;5052394;28;19905;-82
2022/12/17 16:19:53;;;;;;;;;;;;;;;;;;5034301;28;19915;-82
2022/12/17 16:22:19;;;;;;;;;;;;;;;;;;5034370;28;19909;-82
2022/12/17 16:24:45;;;;;;;;;;;;;;;;;;5034263;28;19944;-81
2022/12/17 16:27:11;;;;;;;;;;;;;;;;;;5034250;28;19959;-82
2022/12/17 16:29:37;;;;;;;;;;;;;;;;;;5034108;28;20208;-82
2022/12/17 16:32:03;;;;;;;;;;;;;;;;;;5033912;28;19915;-82
2022/12/17 16:34:29;;;;;;;;;;;;;;;;;;5032474;28;20015;-82
2022/12/17 16:36:55;;;;;;;;;;;;;;;;;;5051975;28;19909;-81
2022/12/17 16:39:21;;;;;;;;;;;;;;;;;;5033749;28;19948;-82
2022/12/17 16:41:54;;;;;;;;;;;;;;;;;;5033896;28;19908;-82
2022/12/17 16:44:24;;;;;;;;;;;;;;;;;;5033599;28;19959;-82
2022/12/17 16:46:51;;;;;;;;;;;;;;;;;;5057038;28;19999;-78
2022/12/17 16:49:17;;;;;;;;;;;;;;;;;;5057367;28;19962;-78
2022/12/17 16:51:43;;;;;;;;;;;;;;;;;;5057606;28;19908;-78
2022/12/17 16:54:08;;;;;;;;;;;;;;;;;;5058073;28;19904;-78
2022/12/17 16:56:34;;;;;;;;;;;;;;;;;;5057305;28;20000;-78
2022/12/17 16:59:00;;;;;;;;;;;;;;;;;;5037794;28;20303;-78
2022/12/17 17:01:27;;;;;;;;;;;;;;;;;;5037604;28;19909;-78
2022/12/17 17:03:52;;;;;;;;;;;;;;;;;;5034428;28;20003;-78
2022/12/17 17:06:18;;;;;;;;;;;;;;;;;;5035588;28;19940;-78
2022/12/17 17:08:44;;;;;;;;;;;;;;;;;;5034194;28;19959;-78
2022/12/17 17:11:10;;;;;;;;;;;;;;;;;;5034528;28;19908;-78
2022/12/17 17:13:36;;;;;;;;;;;;;;;;;;5037142;28;20365;-78
2022/12/17 17:16:02;;;;;;;;;;;;;;;;;;5037625;28;20319;-77
2022/12/17 17:18:28;;;;;;;;;;;;;;;;;;5055268;28;20338;-77
2022/12/17 17:20:54;;;;;;;;;;;;;;;;;;5055324;28;20304;-78
2022/12/17 17:23:20;;;;;;;;;;;;;;;;;;5055388;28;19909;-78
2022/12/17 17:25:46;;;;;;;;;;;;;;;;;;5037317;28;19995;-77
2022/12/17 17:28:12;;;;;;;;;;;;;;;;;;5037171;28;19908;-78
2022/12/17 17:30:38;;;;;;;;;;;;;;;;;;5036952;28;20334;-78
2022/12/17 17:33:04;;;;;;;;;;;;;;;;;;5033752;28;19994;-78
2022/12/17 17:35:30;;;;;;;;;;;;;;;;;;5030300;28;19905;-77
2022/12/17 17:37:56;;;;;;;;;;;;;;;;;;5017040;28;20267;-82
2022/12/17 17:40:22;;;;;;;;;;;;;;;;;;5051889;28;19916;-82
2022/12/17 17:42:48;;;;;;;;;;;;;;;;;;5053652;28;19905;-81
2022/12/17 17:45:14;;;;;;;;;;;;;;;;;;5037161;28;19927;-81
2022/12/17 17:47:40;;;;;;;;;;;;;;;;;;5055067;28;19912;-81
2022/12/17 17:50:06;;;;;;;;;;;;;;;;;;5070265;28;19959;-81
2022/12/17 17:52:32;;;;;;;;;;;;;;;;;;5056751;28;19912;-81
2022/12/17 17:54:57;;;;;;;;;;;;;;;;;;5037109;28;19905;-81
2022/12/17 17:57:23;;;;;;;;;;;;;;;;;;5053993;28;20331;-81
2022/12/17 17:59:49;;;;;;;;;;;;;;;;;;5016908;28;20397;-81
2022/12/17 18:02:15;;;;;;;;;;;;;;;;;;5017148;28;19916;-81
2022/12/17 18:04:41;;;;;;;;;;;;;;;;;;5021318;28;20076;-81
2022/12/17 18:07:07;;;;;;;;;;;;;;;;;;5060079;28;19904;-81
2022/12/17 18:09:34;;;;;;;;;;;;;;;;;;5063317;28;20354;-81
2022/12/17 18:13:53;;;;;;;;;;;;;;;;;;5036701;28;19912;-81
2022/12/17 18:14:46;;;;;;;;;;;;;;;;;;5054497;28;20426;-81
2022/12/17 18:17:12;;;;;;;;;;;;;;;;;;5045957;28;20015;-81
2022/12/17 18:19:38;;;;;;;;;;;;;;;;;;5034537;28;19967;-81
2022/12/17 18:22:04;;;;;;;;;;;;;;;;;;5016775;28;19909;-81
2022/12/17 18:24:30;;;;;;;;;;;;;;;;;;5034479;28;20362;-81
2022/12/17 18:26:56;;;;;;;;;;;;;;;;;;5034515;28;20312;-81
2022/12/17 18:29:22;;;;;;;;;;;;;;;;;;5016634;28;20357;-81
2022/12/17 18:31:48;;;;;;;;;;;;;;;;;;5034416;28;20299;-81
2022/12/17 18:34:13;;;;;;;;;;;;;;;;;;5016647;28;19939;-81
2022/12/17 18:36:39;;;;;;;;;;;;;;;;;;5016614;28;19906;-81
2022/12/17 18:39:06;;;;;;;;;;;;;;;;;;5023816;28;19959;-81
2022/12/17 18:44:16;;;;;;;;;;;;;;;;;;5054053;28;19931;-81
2022/12/17 18:46:42;;;;;;;;;;;;;;;;;;5053806;28;19904;-81
2022/12/17 18:49:08;;;;;;;;;;;;;;;;;;5059282;28;19961;-81
2022/12/17 18:51:34;;;;;;;;;;;;;;;;;;5044767;28;19954;-81
2022/12/17 18:54:00;;;;;;;;;;;;;;;;;;5035943;28;20370;-81
2022/12/17 18:56:26;;;;;;;;;;;;;;;;;;5053354;28;19944;-81
2022/12/17 18:58:52;;;;;;;;;;;;;;;;;;5035597;28;19905;-81
2022/12/17 19:01:18;;;;;;;;;;;;;;;;;;5036017;28;19916;-80
2022/12/17 19:03:44;;;;;;;;;;;;;;;;;;5053774;28;19909;-80
2022/12/17 19:06:10;;;;;;;;;;;;;;;;;;5053744;28;19962;-80
2022/12/17 19:08:36;;;;;;;;;;;;;;;;;;5051355;28;19960;-80
2022/12/17 19:11:02;;;;;;;;;;;;;;;;;;5053469;28;19909;-80
2022/12/17 19:13:30;;;;;;;;;;;;;;;;;;5053349;28;19954;-80
2022/12/17 19:15:55;;;;;;;;;;;;;;;;;;5053176;28;19912;-80
2022/12/17 19:18:21;;;;;;;;;;;;;;;;;;5052111;28;19905;-82
2022/12/17 19:20:47;;;;;;;;;;;;;;;;;;5052110;28;19912;-82
2022/12/17 19:23:13;;;;;;;;;;;;;;;;;;5035320;28;19917;-81
2022/12/17 19:25:39;;;;;;;;;;;;;;;;;;5035336;28;19943;-81
2022/12/17 19:28:05;;;;;;;;;;;;;;;;;;5053078;28;19935;-82
2022/12/17 19:30:31;;;;;;;;;;;;;;;;;;5035075;28;20369;-81
2022/12/17 19:32:57;;;;;;;;;;;;;;;;;;5035318;28;20354;-81
2022/12/17 19:35:23;;;;;;;;;;;;;;;;;;5035290;28;20309;-81
2022/12/17 19:37:49;;;;;;;;;;;;;;;;;;5043946;28;20281;-81
2022/12/17 19:40:15;;;;;;;;;;;;;;;;;;5072954;28;20050;-81
2022/12/17 19:42:41;;;;;;;;;;;;;;;;;;5072985;28;19969;-81
2022/12/17 19:45:07;;;;;;;;;;;;;;;;;;5062140;28;19908;-81
2022/12/17 19:47:33;;;;;;;;;;;;;;;;;;5053004;28;20311;-81
2022/12/17 19:49:59;;;;;;;;;;;;;;;;;;5052259;28;19917;-80
2022/12/17 19:52:25;;;;;;;;;;;;;;;;;;5052925;28;19916;-80
2022/12/17 19:54:51;;;;;;;;;;;;;;;;;;5052799;28;19904;-80
2022/12/17 19:57:17;;;;;;;;;;;;;;;;;;5051525;28;19944;-81
2022/12/17 19:59:43;;;;;;;;;;;;;;;;;;5052607;28;19916;-81
2022/12/17 20:02:08;;;;;;;;;;;;;;;;;;5052623;28;19916;-80
2022/12/17 20:04:34;;;;;;;;;;;;;;;;;;5052615;28;19905;-81
2022/12/17 20:07:00;;;;;;;;;;;;;;;;;;5034872;28;19951;-82
2022/12/17 20:09:26;;;;;;;;;;;;;;;;;;5034552;28;19916;-80
2022/12/17 20:14:39;;;;;;;;;;;;;;;;;;5032577;28;19916;-81
2022/12/17 20:17:05;;;;;;;;;;;;;;;;;;5031146;28;19979;-81
2022/12/17 20:19:31;;;;;;;;;;;;;;;;;;5034283;28;19905;-81
2022/12/17 20:21:57;;;;;;;;;;;;;;;;;;5039114;28;19979;-81
2022/12/17 20:24:23;;;;;;;;;;;;;;;;;;5037766;28;20343;-81
2022/12/17 20:26:49;;;;;;;;;;;;;;;;;;5045520;28;20388;-81
2022/12/17 20:29:15;;;;;;;;;;;;;;;;;;5041097;28;20636;-81
2022/12/17 20:31:41;;;;;;;;;;;;;;;;;;5041105;28;19939;-81
2022/12/17 20:34:07;;;;;;;;;;;;;;;;;;5040550;28;20288;-81
2022/12/17 20:36:33;;;;;;;;;;;;;;;;;;5059012;28;19916;-81
2022/12/17 20:38:59;;;;;;;;;;;;;;;;;;5040909;28;20278;-81
2022/12/17 20:41:25;;;;;;;;;;;;;;;;;;5058762;28;20019;-81
2022/12/17 20:43:51;;;;;;;;;;;;;;;;;;5040692;28;19905;-81
2022/12/17 20:46:17;;;;;;;;;;;;;;;;;;5057125;28;19904;-81
2022/12/17 20:48:43;;;;;;;;;;;;;;;;;;5063170;28;19951;-81
2022/12/17 20:51:09;;;;;;;;;;;;;;;;;;5078872;28;19950;-81
2022/12/17 20:53:35;;;;;;;;;;;;;;;;;;5064781;28;19955;-81
2022/12/17 20:56:01;;;;;;;;;;;;;;;;;;5058841;28;19912;-81
2022/12/17 20:58:27;;;;;;;;;;;;;;;;;;5058658;28;20267;-81
2022/12/17 21:00:53;;;;;;;;;;;;;;;;;;5058692;28;19909;-81
2022/12/17 21:03:19;;;;;;;;;;;;;;;;;;5040610;28;19912;-81
2022/12/17 21:05:45;;;;;;;;;;;;;;;;;;5058269;28;19916;-81
2022/12/17 21:08:11;;;;;;;;;;;;;;;;;;5038502;28;19909;-81
2022/12/17 21:10:36;;;;;;;;;;;;;;;;;;5020621;28;19916;-81
2022/12/17 21:15:47;;;;;;;;;;;;;;;;;;5038492;28;19959;-81
2022/12/17 21:18:13;;;;;;;;;;;;;;;;;;5047421;28;19908;-81
2022/12/17 21:20:39;;;;;;;;;;;;;;;;;;5057043;28;19904;-81
2022/12/17 21:23:05;;;;;;;;;;;;;;;;;;5058469;28;19909;-81
2022/12/17 21:25:30;;;;;;;;;;;;;;;;;;5058542;28;19996;-81
2022/12/17 21:27:56;;;;;;;;;;;;;;;;;;5040372;28;19911;-81
2022/12/17 21:30:22;;;;;;;;;;;;;;;;;;5057778;28;19948;-81
2022/12/17 21:32:48;;;;;;;;;;;;;;;;;;5026524;28;19909;-81
2022/12/17 21:35:14;;;;;;;;;;;;;;;;;;5035241;28;20451;-81
2022/12/17 21:37:40;;;;;;;;;;;;;;;;;;5017431;28;19928;-80
2022/12/17 21:40:06;;;;;;;;;;;;;;;;;;5035056;28;20355;-80
2022/12/17 21:45:31;;;;;;;;;;;;;;;;;;5019933;28;19992;-81
2022/12/17 21:47:57;;;;;;;;;;;;;;;;;;5039890;28;19955;-81
2022/12/17 21:50:23;;;;;;;;;;;;;;;;;;5062479;28;19986;-81
2022/12/17 21:52:49;;;;;;;;;;;;;;;;;;5054773;28;19905;-81
2022/12/17 21:55:14;;;;;;;;;;;;;;;;;;5036321;28;19974;-81
2022/12/17 21:57:40;;;;;;;;;;;;;;;;;;5036119;28;20346;-81
2022/12/17 22:00:07;;;;;;;;;;;;;;;;;;5053690;28;20374;-81
2022/12/17 22:02:32;;;;;;;;;;;;;;;;;;5036104;28;19923;-81
2022/12/17 22:04:59;;;;;;;;;;;;;;;;;;5035947;28;19905;-81
2022/12/17 22:07:24;;;;;;;;;;;;;;;;;;5054282;28;19905;-81
2022/12/17 22:09:50;;;;;;;;;;;;;;;;;;5053759;28;19909;-80
2022/12/17 22:15:01;;;;;;;;;;;;;;;;;;5054456;28;19911;-80
2022/12/17 22:17:27;;;;;;;;;;;;;;;;;;5054071;28;19905;-81
2022/12/17 22:19:53;;;;;;;;;;;;;;;;;;5054555;28;19904;-80
2022/12/17 22:22:19;;;;;;;;;;;;;;;;;;5054395;28;19908;-81
2022/12/17 22:24:45;;;;;;;;;;;;;;;;;;5054612;28;19952;-80
2022/12/17 22:27:11;;;;;;;;;;;;;;;;;;5054323;28;19958;-81
2022/12/17 22:35:06;;;;;;;;;;;;;;;;;;5052437;28;19996;-81
2022/12/17 22:37:32;;;;;;;;;;;;;;;;;;5052707;28;19948;-81
2022/12/17 22:39:58;;;;;;;;;;;;;;;;;;5022893;28;19955;-81
2022/12/17 22:45:08;;;;;;;;;;;;;;;;;;5059214;28;20469;-81
2022/12/17 22:47:34;;;;;;;;;;;;;;;;;;5048726;28;19984;-81
2022/12/17 22:50:00;;;;;;;;;;;;;;;;;;5059533;28;19952;-81
2022/12/17 22:52:26;;;;;;;;;;;;;;;;;;5052953;28;19905;-80
2022/12/17 22:54:52;;;;;;;;;;;;;;;;;;5052652;28;19909;-80
2022/12/17 22:57:18;;;;;;;;;;;;;;;;;;5034472;28;20351;-81
2022/12/17 22:59:44;;;;;;;;;;;;;;;;;;5034247;28;19952;-80
2022/12/17 23:02:10;;;;;;;;;;;;;;;;;;5053518;28;19920;-81
2022/12/17 23:04:36;;;;;;;;;;;;;;;;;;5053916;28;20354;-80
2022/12/17 23:07:02;;;;;;;;;;;;;;;;;;5066728;28;20314;-81
2022/12/17 23:09:28;;;;;;;;;;;;;;;;;;5034017;28;19944;-80
2022/12/17 23:11:54;;;;;;;;;;;;;;;;;;5052291;28;19928;-81
2022/12/17 23:14:20;;;;;;;;;;;;;;;;;;5034330;28;19913;-81
2022/12/17 23:16:45;;;;;;;;;;;;;;;;;;5034228;28;19962;-81
2022/12/17 23:19:11;;;;;;;;;;;;;;;;;;5051938;28;19904;-80
2022/12/17 23:21:37;;;;;;;;;;;;;;;;;;5033504;28;19905;-80
2022/12/17 23:24:03;;;;;;;;;;;;;;;;;;5051144;28;19993;-80
2022/12/17 23:26:29;;;;;;;;;;;;;;;;;;5052000;28;19913;-81
2022/12/17 23:28:57;;;;;;;;;;;;;;;;;;5051322;28;19963;-80
2022/12/17 23:31:23;;;;;;;;;;;;;;;;;;5051467;28;19948;-80
2022/12/17 23:33:49;;;;;;;;;;;;;;;;;;5050347;28;20394;-80
2022/12/17 23:36:15;;;;;;;;;;;;;;;;;;5050743;28;19908;-80
2022/12/17 23:38:41;;;;;;;;;;;;;;;;;;5032047;28;19904;-80
2022/12/17 23:41:07;;;;;;;;;;;;;;;;;;5031051;28;20390;-80
2022/12/17 23:43:33;;;;;;;;;;;;;;;;;;5034785;28;20382;-80
2022/12/17 23:45:59;;;;;;;;;;;;;;;;;;5066558;28;20431;-80
2022/12/17 23:48:25;;;;;;;;;;;;;;;;;;5052226;28;20022;-80
2022/12/17 23:50:51;;;;;;;;;;;;;;;;;;5070303;28;19904;-81
2022/12/17 23:53:16;;;;;;;;;;;;;;;;;;5064910;28;19936;-81
2022/12/17 23:55:42;;;;;;;;;;;;;;;;;;5062687;28;19970;-81
2022/12/17 23:58:08;;;;;;;;;;;;;;;;;;5070689;28;19904;-81
